sensor_id;sensor_type;location;lat;lon;timestamp;temperature;humidity
13850;DHT22;6995;52.618;13.488;2023-02-12T00:02:23;7.30;42.90
13850;DHT22;6995;52.618;13.488;2023-02-12T00:04:49;7.30;17.30
13850;DHT22;6995;52.618;13.488;2023-02-12T00:07:15;7.30;26.60
13850;DHT22;6995;52.618;13.488;2023-02-12T00:09:41;7.30;33.10
13850;DHT22;6995;52.618;13.488;2023-02-12T00:12:06;7.30;52.20
13850;DHT22;6995;52.618;13.488;2023-02-12T00:14:32;7.30;25.40
13850;DHT22;6995;52.618;13.488;2023-02-12T00:17:00;7.30;30.90
13850;DHT22;6995;52.618;13.488;2023-02-12T00:19:26;7.30;33.50
13850;DHT22;6995;52.618;13.488;2023-02-12T00:21:52;7.20;38.80
13850;DHT22;6995;52.618;13.488;2023-02-12T00:24:18;7.30;45.70
13850;DHT22;6995;52.618;13.488;2023-02-12T00:26:47;7.20;38.90
13850;DHT22;6995;52.618;13.488;2023-02-12T00:29:16;7.20;36.30
13850;DHT22;6995;52.618;13.488;2023-02-12T00:31:42;7.20;39.20
13850;DHT22;6995;52.618;13.488;2023-02-12T00:34:09;7.20;42.00
13850;DHT22;6995;52.618;13.488;2023-02-12T00:36:35;7.20;37.90
13850;DHT22;6995;52.618;13.488;2023-02-12T00:39:01;7.20;36.60
13850;DHT22;6995;52.618;13.488;2023-02-12T00:41:27;7.20;33.50
13850;DHT22;6995;52.618;13.488;2023-02-12T00:43:53;7.20;33.60
13850;DHT22;6995;52.618;13.488;2023-02-12T00:46:19;7.20;31.40
13850;DHT22;6995;52.618;13.488;2023-02-12T00:48:45;7.20;25.70
13850;DHT22;6995;52.618;13.488;2023-02-12T00:51:10;7.20;24.50
13850;DHT22;6995;52.618;13.488;2023-02-12T00:53:36;7.10;20.40
13850;DHT22;6995;52.618;13.488;2023-02-12T00:56:02;7.10;19.50
13850;DHT22;6995;52.618;13.488;2023-02-12T00:58:29;7.10;32.60
13850;DHT22;6995;52.618;13.488;2023-02-12T01:00:54;7.10;30.10
13850;DHT22;6995;52.618;13.488;2023-02-12T01:03:20;7.10;29.90
13850;DHT22;6995;52.618;13.488;2023-02-12T01:05:46;7.10;20.60
13850;DHT22;6995;52.618;13.488;2023-02-12T01:08:13;7.10;22.50
13850;DHT22;6995;52.618;13.488;2023-02-12T01:10:40;7.10;30.10
13850;DHT22;6995;52.618;13.488;2023-02-12T01:13:06;7.00;22.90
13850;DHT22;6995;52.618;13.488;2023-02-12T01:15:33;7.00;33.60
13850;DHT22;6995;52.618;13.488;2023-02-12T01:17:59;7.00;30.40
13850;DHT22;6995;52.618;13.488;2023-02-12T01:20:24;7.00;29.30
13850;DHT22;6995;52.618;13.488;2023-02-12T01:22:50;7.00;24.80
13850;DHT22;6995;52.618;13.488;2023-02-12T01:25:16;7.00;26.20
13850;DHT22;6995;52.618;13.488;2023-02-12T01:27:42;7.00;21.90
13850;DHT22;6995;52.618;13.488;2023-02-12T01:30:10;7.00;28.30
13850;DHT22;6995;52.618;13.488;2023-02-12T01:32:36;7.00;30.10
13850;DHT22;6995;52.618;13.488;2023-02-12T01:35:02;7.00;25.60
13850;DHT22;6995;52.618;13.488;2023-02-12T01:37:29;7.00;14.40
13850;DHT22;6995;52.618;13.488;2023-02-12T01:39:55;7.00;15.60
13850;DHT22;6995;52.618;13.488;2023-02-12T01:42:21;7.00;20.00
13850;DHT22;6995;52.618;13.488;2023-02-12T01:47:38;7.00;14.70
13850;DHT22;6995;52.618;13.488;2023-02-12T01:50:06;7.00;15.00
13850;DHT22;6995;52.618;13.488;2023-02-12T01:52:35;7.00;15.80
13850;DHT22;6995;52.618;13.488;2023-02-12T01:55:05;7.00;14.60
13850;DHT22;6995;52.618;13.488;2023-02-12T01:57:34;6.90;16.40
13850;DHT22;6995;52.618;13.488;2023-02-12T02:00:03;6.90;13.50
13850;DHT22;6995;52.618;13.488;2023-02-12T02:02:30;6.90;11.20
13850;DHT22;6995;52.618;13.488;2023-02-12T02:05:01;6.90;21.40
13850;DHT22;6995;52.618;13.488;2023-02-12T02:07:27;6.90;18.90
13850;DHT22;6995;52.618;13.488;2023-02-12T02:09:53;6.90;17.70
13850;DHT22;6995;52.618;13.488;2023-02-12T02:12:20;6.90;14.50
13850;DHT22;6995;52.618;13.488;2023-02-12T02:15:05;6.90;15.70
13850;DHT22;6995;52.618;13.488;2023-02-12T02:17:50;6.90;16.90
13850;DHT22;6995;52.618;13.488;2023-02-12T02:20:32;6.90;14.00
13850;DHT22;6995;52.618;13.488;2023-02-12T02:28:56;6.90;5.60
13850;DHT22;6995;52.618;13.488;2023-02-12T02:31:31;6.90;4.20
13850;DHT22;6995;52.618;13.488;2023-02-12T02:34:16;6.90;1.00
13850;DHT22;6995;52.618;13.488;2023-02-12T02:36:52;6.90;1.00
13850;DHT22;6995;52.618;13.488;2023-02-12T02:39:46;6.90;1.00
13850;DHT22;6995;52.618;13.488;2023-02-12T02:42:17;6.90;1.00
13850;DHT22;6995;52.618;13.488;2023-02-12T02:44:52;6.90;1.00
13850;DHT22;6995;52.618;13.488;2023-02-12T02:47:21;6.90;1.00
13850;DHT22;6995;52.618;13.488;2023-02-12T02:50:08;6.90;1.00
13850;DHT22;6995;52.618;13.488;2023-02-12T02:53:04;6.90;1.00
13850;DHT22;6995;52.618;13.488;2023-02-12T02:55:42;6.90;1.00
13850;DHT22;6995;52.618;13.488;2023-02-12T02:58:12;6.90;1.00
13850;DHT22;6995;52.618;13.488;2023-02-12T03:00:49;6.90;1.00
13850;DHT22;6995;52.618;13.488;2023-02-12T03:04:07;6.90;1.00
13850;DHT22;6995;52.618;13.488;2023-02-12T03:08:53;6.90;1.00
13850;DHT22;6995;52.618;13.488;2023-02-12T03:11:26;6.80;1.00
13850;DHT22;6995;52.618;13.488;2023-02-12T03:14:02;6.80;1.00
13850;DHT22;6995;52.618;13.488;2023-02-12T03:19:24;6.80;1.00
13850;DHT22;6995;52.618;13.488;2023-02-12T03:22:08;6.80;1.00
13850;DHT22;6995;52.618;13.488;2023-02-12T03:25:24;6.80;1.00
13850;DHT22;6995;52.618;13.488;2023-02-12T03:27:37;6.80;1.00
13850;DHT22;6995;52.618;13.488;2023-02-12T03:30:05;6.80;1.00
13850;DHT22;6995;52.618;13.488;2023-02-12T03:32:59;6.80;1.00
13850;DHT22;6995;52.618;13.488;2023-02-12T03:35:41;6.80;1.00
13850;DHT22;6995;52.618;13.488;2023-02-12T03:40:58;6.80;1.00
13850;DHT22;6995;52.618;13.488;2023-02-12T03:43:37;6.80;1.00
13850;DHT22;6995;52.618;13.488;2023-02-12T03:46:28;6.80;1.00
13850;DHT22;6995;52.618;13.488;2023-02-12T03:49:15;6.80;1.00
13850;DHT22;6995;52.618;13.488;2023-02-12T03:51:45;6.90;1.00
13850;DHT22;6995;52.618;13.488;2023-02-12T03:54:13;6.90;1.00
13850;DHT22;6995;52.618;13.488;2023-02-12T03:59:19;7.00;1.00
13850;DHT22;6995;52.618;13.488;2023-02-12T04:01:47;6.90;1.00
13850;DHT22;6995;52.618;13.488;2023-02-12T04:04:13;6.90;1.00
13850;DHT22;6995;52.618;13.488;2023-02-12T04:06:40;6.90;1.00
13850;DHT22;6995;52.618;13.488;2023-02-12T04:09:08;6.90;1.00
13850;DHT22;6995;52.618;13.488;2023-02-12T04:12:13;6.90;1.00
13850;DHT22;6995;52.618;13.488;2023-02-12T04:15:01;6.90;1.00
13850;DHT22;6995;52.618;13.488;2023-02-12T04:17:43;6.80;1.00
13850;DHT22;6995;52.618;13.488;2023-02-12T04:20:52;6.80;1.00
13850;DHT22;6995;52.618;13.488;2023-02-12T04:23:46;6.90;1.00
13850;DHT22;6995;52.618;13.488;2023-02-12T04:26:46;6.90;1.00
13850;DHT22;6995;52.618;13.488;2023-02-12T04:32:04;6.90;1.00
13850;DHT22;6995;52.618;13.488;2023-02-12T04:37:25;6.90;1.00
13850;DHT22;6995;52.618;13.488;2023-02-12T04:39:54;6.90;1.00
13850;DHT22;6995;52.618;13.488;2023-02-12T04:42:20;6.90;1.00
13850;DHT22;6995;52.618;13.488;2023-02-12T04:44:46;6.90;1.00
13850;DHT22;6995;52.618;13.488;2023-02-12T04:47:13;6.90;1.00
13850;DHT22;6995;52.618;13.488;2023-02-12T04:49:40;6.90;1.00
13850;DHT22;6995;52.618;13.488;2023-02-12T04:52:06;6.90;1.00
13850;DHT22;6995;52.618;13.488;2023-02-12T04:54:32;6.90;1.00
13850;DHT22;6995;52.618;13.488;2023-02-12T04:56:58;6.80;1.00
13850;DHT22;6995;52.618;13.488;2023-02-12T04:59:24;6.80;1.00
13850;DHT22;6995;52.618;13.488;2023-02-12T05:01:49;6.80;1.00
13850;DHT22;6995;52.618;13.488;2023-02-12T05:04:15;6.80;1.00
13850;DHT22;6995;52.618;13.488;2023-02-12T05:06:44;6.90;1.00
13850;DHT22;6995;52.618;13.488;2023-02-12T05:09:16;6.90;1.00
13850;DHT22;6995;52.618;13.488;2023-02-12T05:11:42;6.90;1.00
13850;DHT22;6995;52.618;13.488;2023-02-12T05:14:08;6.90;1.00
13850;DHT22;6995;52.618;13.488;2023-02-12T05:16:34;6.90;1.00
13850;DHT22;6995;52.618;13.488;2023-02-12T05:18:59;6.90;1.00
13850;DHT22;6995;52.618;13.488;2023-02-12T05:21:25;7.00;1.00
13850;DHT22;6995;52.618;13.488;2023-02-12T05:23:51;6.90;1.00
13850;DHT22;6995;52.618;13.488;2023-02-12T05:26:20;6.90;1.00
13850;DHT22;6995;52.618;13.488;2023-02-12T05:28:46;6.90;1.00
13850;DHT22;6995;52.618;13.488;2023-02-12T05:31:14;6.90;1.00
13850;DHT22;6995;52.618;13.488;2023-02-12T05:33:44;6.80;1.00
13850;DHT22;6995;52.618;13.488;2023-02-12T05:36:21;6.80;1.00
13850;DHT22;6995;52.618;13.488;2023-02-12T05:38:48;6.80;1.00
13850;DHT22;6995;52.618;13.488;2023-02-12T05:41:16;6.80;1.00
13850;DHT22;6995;52.618;13.488;2023-02-12T05:43:43;6.80;1.00
13850;DHT22;6995;52.618;13.488;2023-02-12T05:46:09;6.70;1.00
13850;DHT22;6995;52.618;13.488;2023-02-12T05:48:41;6.70;1.00
13850;DHT22;6995;52.618;13.488;2023-02-12T05:51:26;6.80;1.00
13850;DHT22;6995;52.618;13.488;2023-02-12T05:53:56;6.80;1.00
13850;DHT22;6995;52.618;13.488;2023-02-12T05:56:24;6.80;1.00
13850;DHT22;6995;52.618;13.488;2023-02-12T05:58:56;6.80;1.00
13850;DHT22;6995;52.618;13.488;2023-02-12T06:01:27;6.80;1.00
13850;DHT22;6995;52.618;13.488;2023-02-12T06:03:53;6.80;1.00
13850;DHT22;6995;52.618;13.488;2023-02-12T06:06:19;6.80;1.00
13850;DHT22;6995;52.618;13.488;2023-02-12T06:08:48;6.80;1.00
13850;DHT22;6995;52.618;13.488;2023-02-12T06:11:15;6.70;1.00
13850;DHT22;6995;52.618;13.488;2023-02-12T06:13:41;6.70;1.00
13850;DHT22;6995;52.618;13.488;2023-02-12T06:16:14;6.70;1.00
13850;DHT22;6995;52.618;13.488;2023-02-12T06:18:40;6.70;1.00
13850;DHT22;6995;52.618;13.488;2023-02-12T06:21:06;6.70;1.00
13850;DHT22;6995;52.618;13.488;2023-02-12T06:23:31;6.70;1.00
13850;DHT22;6995;52.618;13.488;2023-02-12T06:25:57;6.70;1.00
13850;DHT22;6995;52.618;13.488;2023-02-12T06:28:23;6.70;1.00
13850;DHT22;6995;52.618;13.488;2023-02-12T06:30:49;6.70;1.00
13850;DHT22;6995;52.618;13.488;2023-02-12T06:33:15;6.60;1.00
13850;DHT22;6995;52.618;13.488;2023-02-12T06:38:34;6.70;1.00
13850;DHT22;6995;52.618;13.488;2023-02-12T06:41:03;6.70;1.00
13850;DHT22;6995;52.618;13.488;2023-02-12T06:43:29;6.70;1.00
13850;DHT22;6995;52.618;13.488;2023-02-12T06:45:55;6.80;1.00
13850;DHT22;6995;52.618;13.488;2023-02-12T06:48:20;6.70;1.00
13850;DHT22;6995;52.618;13.488;2023-02-12T06:50:46;6.70;1.00
13850;DHT22;6995;52.618;13.488;2023-02-12T06:53:12;6.70;1.00
13850;DHT22;6995;52.618;13.488;2023-02-12T06:55:37;6.80;1.00
13850;DHT22;6995;52.618;13.488;2023-02-12T06:58:03;6.70;1.00
13850;DHT22;6995;52.618;13.488;2023-02-12T07:00:29;6.80;1.00
13850;DHT22;6995;52.618;13.488;2023-02-12T07:02:55;6.80;1.00
13850;DHT22;6995;52.618;13.488;2023-02-12T07:05:21;6.80;1.00
13850;DHT22;6995;52.618;13.488;2023-02-12T07:07:48;6.80;1.00
13850;DHT22;6995;52.618;13.488;2023-02-12T07:10:13;6.80;1.00
13850;DHT22;6995;52.618;13.488;2023-02-12T07:12:39;6.80;1.00
13850;DHT22;6995;52.618;13.488;2023-02-12T07:15:05;6.80;1.00
13850;DHT22;6995;52.618;13.488;2023-02-12T07:17:30;6.80;1.00
13850;DHT22;6995;52.618;13.488;2023-02-12T07:20:04;6.70;1.00
13850;DHT22;6995;52.618;13.488;2023-02-12T07:22:36;6.80;1.00
13850;DHT22;6995;52.618;13.488;2023-02-12T07:25:02;6.80;1.00
13850;DHT22;6995;52.618;13.488;2023-02-12T07:27:48;6.90;1.00
13850;DHT22;6995;52.618;13.488;2023-02-12T07:30:14;7.00;1.00
13850;DHT22;6995;52.618;13.488;2023-02-12T07:32:39;7.00;1.00
13850;DHT22;6995;52.618;13.488;2023-02-12T07:35:05;7.00;1.00
13850;DHT22;6995;52.618;13.488;2023-02-12T07:37:32;7.10;1.00
13850;DHT22;6995;52.618;13.488;2023-02-12T07:40:00;7.10;1.00
13850;DHT22;6995;52.618;13.488;2023-02-12T07:42:26;7.20;1.00
13850;DHT22;6995;52.618;13.488;2023-02-12T07:44:52;7.30;1.00
13850;DHT22;6995;52.618;13.488;2023-02-12T07:47:17;7.40;1.00
13850;DHT22;6995;52.618;13.488;2023-02-12T07:49:43;7.40;1.00
13850;DHT22;6995;52.618;13.488;2023-02-12T07:52:09;7.50;1.00
13850;DHT22;6995;52.618;13.488;2023-02-12T07:54:34;7.50;1.00
13850;DHT22;6995;52.618;13.488;2023-02-12T07:57:00;7.40;1.00
13850;DHT22;6995;52.618;13.488;2023-02-12T07:59:26;7.50;1.00
13850;DHT22;6995;52.618;13.488;2023-02-12T08:01:53;7.50;1.00
13850;DHT22;6995;52.618;13.488;2023-02-12T08:04:23;7.60;1.00
13850;DHT22;6995;52.618;13.488;2023-02-12T08:06:53;7.60;1.00
13850;DHT22;6995;52.618;13.488;2023-02-12T08:09:21;7.60;1.00
13850;DHT22;6995;52.618;13.488;2023-02-12T08:11:53;7.60;1.00
13850;DHT22;6995;52.618;13.488;2023-02-12T08:14:20;7.60;1.00
13850;DHT22;6995;52.618;13.488;2023-02-12T08:16:47;7.70;1.00
13850;DHT22;6995;52.618;13.488;2023-02-12T08:19:13;7.70;1.00
13850;DHT22;6995;52.618;13.488;2023-02-12T08:21:43;7.60;1.00
13850;DHT22;6995;52.618;13.488;2023-02-12T08:24:10;7.60;1.00
13850;DHT22;6995;52.618;13.488;2023-02-12T08:26:39;7.70;1.00
13850;DHT22;6995;52.618;13.488;2023-02-12T08:29:24;7.60;1.00
13850;DHT22;6995;52.618;13.488;2023-02-12T08:31:54;7.70;1.00
13850;DHT22;6995;52.618;13.488;2023-02-12T08:34:32;7.70;1.00
13850;DHT22;6995;52.618;13.488;2023-02-12T08:37:04;7.80;1.00
13850;DHT22;6995;52.618;13.488;2023-02-12T08:39:30;7.90;1.00
13850;DHT22;6995;52.618;13.488;2023-02-12T08:41:57;7.90;1.00
13850;DHT22;6995;52.618;13.488;2023-02-12T08:44:23;7.90;1.00
13850;DHT22;6995;52.618;13.488;2023-02-12T08:46:50;7.90;1.00
13850;DHT22;6995;52.618;13.488;2023-02-12T08:49:27;7.90;1.00
13850;DHT22;6995;52.618;13.488;2023-02-12T08:51:55;8.00;1.00
13850;DHT22;6995;52.618;13.488;2023-02-12T08:54:23;7.90;1.00
13850;DHT22;6995;52.618;13.488;2023-02-12T08:56:54;7.90;1.00
13850;DHT22;6995;52.618;13.488;2023-02-12T08:59:21;8.00;1.00
13850;DHT22;6995;52.618;13.488;2023-02-12T09:01:49;8.10;1.00
13850;DHT22;6995;52.618;13.488;2023-02-12T09:04:20;8.10;1.00
13850;DHT22;6995;52.618;13.488;2023-02-12T09:06:47;8.10;1.00
13850;DHT22;6995;52.618;13.488;2023-02-12T09:09:13;8.20;1.00
13850;DHT22;6995;52.618;13.488;2023-02-12T09:11:42;8.30;1.00
13850;DHT22;6995;52.618;13.488;2023-02-12T09:14:13;8.30;1.00
13850;DHT22;6995;52.618;13.488;2023-02-12T09:16:40;8.30;1.00
13850;DHT22;6995;52.618;13.488;2023-02-12T09:19:15;8.30;1.00
13850;DHT22;6995;52.618;13.488;2023-02-12T09:21:41;8.30;1.00
13850;DHT22;6995;52.618;13.488;2023-02-12T09:24:07;8.40;1.00
13850;DHT22;6995;52.618;13.488;2023-02-12T09:26:33;8.40;1.00
13850;DHT22;6995;52.618;13.488;2023-02-12T09:29:01;8.40;1.00
13850;DHT22;6995;52.618;13.488;2023-02-12T09:31:28;8.50;1.00
13850;DHT22;6995;52.618;13.488;2023-02-12T09:33:59;8.60;1.00
13850;DHT22;6995;52.618;13.488;2023-02-12T09:36:26;8.70;1.00
13850;DHT22;6995;52.618;13.488;2023-02-12T09:38:52;8.70;1.00
13850;DHT22;6995;52.618;13.488;2023-02-12T09:52:36;8.70;1.00
13850;DHT22;6995;52.618;13.488;2023-02-12T09:55:02;8.80;1.00
13850;DHT22;6995;52.618;13.488;2023-02-12T09:57:33;8.80;1.00
13850;DHT22;6995;52.618;13.488;2023-02-12T10:00:21;8.60;1.00
13850;DHT22;6995;52.618;13.488;2023-02-12T10:02:59;8.70;1.00
13850;DHT22;6995;52.618;13.488;2023-02-12T10:05:35;8.60;1.00
13850;DHT22;6995;52.618;13.488;2023-02-12T10:11:05;8.50;1.00
13850;DHT22;6995;52.618;13.488;2023-02-12T10:14:07;8.30;1.00
13850;DHT22;6995;52.618;13.488;2023-02-12T10:16:58;8.40;1.00
13850;DHT22;6995;52.618;13.488;2023-02-12T10:22:59;8.40;1.00
13850;DHT22;6995;52.618;13.488;2023-02-12T10:25:34;8.50;1.00
13850;DHT22;6995;52.618;13.488;2023-02-12T10:28:27;8.50;1.00
13850;DHT22;6995;52.618;13.488;2023-02-12T10:31:07;8.60;1.00
13850;DHT22;6995;52.618;13.488;2023-02-12T10:33:43;8.70;1.00
13850;DHT22;6995;52.618;13.488;2023-02-12T10:36:45;8.80;1.00
13850;DHT22;6995;52.618;13.488;2023-02-12T10:39:23;9.00;1.00
13850;DHT22;6995;52.618;13.488;2023-02-12T10:41:57;8.90;1.00
13850;DHT22;6995;52.618;13.488;2023-02-12T10:44:26;8.90;1.00
13850;DHT22;6995;52.618;13.488;2023-02-12T10:46:54;8.70;1.00
13850;DHT22;6995;52.618;13.488;2023-02-12T10:49:20;8.70;1.00
13850;DHT22;6995;52.618;13.488;2023-02-12T10:52:15;8.70;1.00
13850;DHT22;6995;52.618;13.488;2023-02-12T10:54:45;8.60;1.00
13850;DHT22;6995;52.618;13.488;2023-02-12T10:57:28;8.50;1.00
13850;DHT22;6995;52.618;13.488;2023-02-12T10:59:56;8.60;1.00
13850;DHT22;6995;52.618;13.488;2023-02-12T11:02:30;8.50;1.00
13850;DHT22;6995;52.618;13.488;2023-02-12T11:04:57;8.50;1.00
13850;DHT22;6995;52.618;13.488;2023-02-12T11:07:25;8.50;1.00
13850;DHT22;6995;52.618;13.488;2023-02-12T11:09:54;8.50;1.00
13850;DHT22;6995;52.618;13.488;2023-02-12T11:14:59;8.30;1.00
13850;DHT22;6995;52.618;13.488;2023-02-12T11:17:32;8.30;1.00
13850;DHT22;6995;52.618;13.488;2023-02-12T11:21:06;8.30;1.00
13850;DHT22;6995;52.618;13.488;2023-02-12T11:23:03;8.40;1.00
13850;DHT22;6995;52.618;13.488;2023-02-12T11:25:33;8.40;1.00
13850;DHT22;6995;52.618;13.488;2023-02-12T11:28:17;8.40;1.00
13850;DHT22;6995;52.618;13.488;2023-02-12T11:31:17;8.30;1.00
13850;DHT22;6995;52.618;13.488;2023-02-12T11:33:42;8.30;1.00
13850;DHT22;6995;52.618;13.488;2023-02-12T11:36:23;8.30;1.00
13850;DHT22;6995;52.618;13.488;2023-02-12T11:38:54;8.30;1.00
13850;DHT22;6995;52.618;13.488;2023-02-12T11:41:37;8.30;1.00
13850;DHT22;6995;52.618;13.488;2023-02-12T11:44:19;8.20;1.00
13850;DHT22;6995;52.618;13.488;2023-02-12T11:46:57;8.20;1.00
13850;DHT22;6995;52.618;13.488;2023-02-12T11:49:33;8.00;1.00
13850;DHT22;6995;52.618;13.488;2023-02-12T11:52:01;8.10;1.00
13850;DHT22;6995;52.618;13.488;2023-02-12T11:54:38;8.10;1.00
13850;DHT22;6995;52.618;13.488;2023-02-12T11:57:33;8.00;1.00
13850;DHT22;6995;52.618;13.488;2023-02-12T11:59:56;8.10;1.00
13850;DHT22;6995;52.618;13.488;2023-02-12T12:02:27;8.00;1.00
13850;DHT22;6995;52.618;13.488;2023-02-12T12:05:10;8.00;1.00
13850;DHT22;6995;52.618;13.488;2023-02-12T12:07:40;8.10;1.00
13850;DHT22;6995;52.618;13.488;2023-02-12T12:10:21;8.00;1.00
13850;DHT22;6995;52.618;13.488;2023-02-12T12:12:50;8.30;1.00
13850;DHT22;6995;52.618;13.488;2023-02-12T12:15:35;8.30;1.00
13850;DHT22;6995;52.618;13.488;2023-02-12T12:18:46;8.20;1.00
13850;DHT22;6995;52.618;13.488;2023-02-12T12:24:56;8.60;1.00
13850;DHT22;6995;52.618;13.488;2023-02-12T12:30:18;9.00;1.00
13850;DHT22;6995;52.618;13.488;2023-02-12T12:32:46;9.30;1.00
13850;DHT22;6995;52.618;13.488;2023-02-12T12:35:17;9.50;1.00
13850;DHT22;6995;52.618;13.488;2023-02-12T12:43:44;9.80;99.90
13850;DHT22;6995;52.618;13.488;2023-02-12T12:52:33;9.70;99.90
13850;DHT22;6995;52.618;13.488;2023-02-12T13:07:53;9.20;99.90
13850;DHT22;6995;52.618;13.488;2023-02-12T13:20:19;9.40;99.90
13850;DHT22;6995;52.618;13.488;2023-02-12T13:25:39;9.40;99.90
13850;DHT22;6995;52.618;13.488;2023-02-12T13:28:12;9.40;99.90
13850;DHT22;6995;52.618;13.488;2023-02-12T13:34:10;9.50;99.90
13850;DHT22;6995;52.618;13.488;2023-02-12T13:36:39;9.50;99.90
13850;DHT22;6995;52.618;13.488;2023-02-12T13:39:31;9.30;99.90
13850;DHT22;6995;52.618;13.488;2023-02-12T13:50:36;9.80;99.90
13850;DHT22;6995;52.618;13.488;2023-02-12T13:58:44;9.90;99.90
13850;DHT22;6995;52.618;13.488;2023-02-12T14:01:15;9.80;99.90
13850;DHT22;6995;52.618;13.488;2023-02-12T14:04:31;9.90;99.90
13850;DHT22;6995;52.618;13.488;2023-02-12T14:07:45;10.00;99.90
13850;DHT22;6995;52.618;13.488;2023-02-12T14:10:45;10.30;99.90
13850;DHT22;6995;52.618;13.488;2023-02-12T14:13:34;10.30;99.90
13850;DHT22;6995;52.618;13.488;2023-02-12T14:16:39;10.20;99.90
13850;DHT22;6995;52.618;13.488;2023-02-12T14:19:39;10.10;99.90
13850;DHT22;6995;52.618;13.488;2023-02-12T14:24:56;10.00;99.90
13850;DHT22;6995;52.618;13.488;2023-02-12T14:27:32;10.00;99.90
13850;DHT22;6995;52.618;13.488;2023-02-12T14:36:11;9.90;99.90
13850;DHT22;6995;52.618;13.488;2023-02-12T14:41:37;9.90;99.90
13850;DHT22;6995;52.618;13.488;2023-02-12T14:46:55;9.90;99.90
13850;DHT22;6995;52.618;13.488;2023-02-12T14:49:51;10.00;99.90
13850;DHT22;6995;52.618;13.488;2023-02-12T14:52:33;10.00;99.90
13850;DHT22;6995;52.618;13.488;2023-02-12T14:57:49;10.00;99.90
13850;DHT22;6995;52.618;13.488;2023-02-12T15:00:39;10.00;99.90
13850;DHT22;6995;52.618;13.488;2023-02-12T15:03:22;10.00;99.90
13850;DHT22;6995;52.618;13.488;2023-02-12T15:06:12;9.90;99.90
13850;DHT22;6995;52.618;13.488;2023-02-12T15:09:20;9.80;99.90
13850;DHT22;6995;52.618;13.488;2023-02-12T15:12:19;9.80;99.90
13850;DHT22;6995;52.618;13.488;2023-02-12T15:18:26;9.90;99.90
13850;DHT22;6995;52.618;13.488;2023-02-12T15:32:22;9.70;99.90
13850;DHT22;6995;52.618;13.488;2023-02-12T15:34:49;9.70;99.90
13850;DHT22;6995;52.618;13.488;2023-02-12T15:37:27;9.70;99.90
13850;DHT22;6995;52.618;13.488;2023-02-12T15:39:58;9.70;99.90
13850;DHT22;6995;52.618;13.488;2023-02-12T15:42:36;9.70;99.90
13850;DHT22;6995;52.618;13.488;2023-02-12T15:50:16;9.60;99.90
13850;DHT22;6995;52.618;13.488;2023-02-12T15:53:04;9.60;99.90
13850;DHT22;6995;52.618;13.488;2023-02-12T15:55:46;9.60;99.90
13850;DHT22;6995;52.618;13.488;2023-02-12T16:02:32;9.50;99.90
13850;DHT22;6995;52.618;13.488;2023-02-12T16:09:14;9.40;99.90
13850;DHT22;6995;52.618;13.488;2023-02-12T16:11:45;9.30;99.90
13850;DHT22;6995;52.618;13.488;2023-02-12T16:14:30;9.30;99.90
13850;DHT22;6995;52.618;13.488;2023-02-12T16:22:49;9.20;1.00
13850;DHT22;6995;52.618;13.488;2023-02-12T16:25:25;9.20;1.00
13850;DHT22;6995;52.618;13.488;2023-02-12T16:30:35;9.20;1.00
13850;DHT22;6995;52.618;13.488;2023-02-12T16:33:33;9.10;1.00
13850;DHT22;6995;52.618;13.488;2023-02-12T16:36:14;9.10;1.00
13850;DHT22;6995;52.618;13.488;2023-02-12T16:48:22;9.00;1.00
13850;DHT22;6995;52.618;13.488;2023-02-12T17:00:11;8.70;1.00
13850;DHT22;6995;52.618;13.488;2023-02-12T17:18:53;8.70;1.00
13850;DHT22;6995;52.618;13.488;2023-02-12T17:21:28;8.70;1.00
13850;DHT22;6995;52.618;13.488;2023-02-12T17:23:55;8.70;1.00
13850;DHT22;6995;52.618;13.488;2023-02-12T17:26:23;8.70;1.00
13850;DHT22;6995;52.618;13.488;2023-02-12T17:28:49;8.70;1.00
13850;DHT22;6995;52.618;13.488;2023-02-12T17:31:28;8.70;1.00
13850;DHT22;6995;52.618;13.488;2023-02-12T17:33:55;8.60;1.00
13850;DHT22;6995;52.618;13.488;2023-02-12T17:36:21;8.60;1.00
13850;DHT22;6995;52.618;13.488;2023-02-12T17:38:52;8.60;1.00
13850;DHT22;6995;52.618;13.488;2023-02-12T17:41:24;8.60;1.00
13850;DHT22;6995;52.618;13.488;2023-02-12T17:43:50;8.60;1.00
13850;DHT22;6995;52.618;13.488;2023-02-12T17:46:24;8.60;1.00
13850;DHT22;6995;52.618;13.488;2023-02-12T17:48:50;8.50;1.00
13850;DHT22;6995;52.618;13.488;2023-02-12T17:51:16;8.60;1.00
13850;DHT22;6995;52.618;13.488;2023-02-12T17:53:42;8.50;1.00
13850;DHT22;6995;52.618;13.488;2023-02-12T17:56:13;8.50;1.00
13850;DHT22;6995;52.618;13.488;2023-02-12T17:58:40;8.50;1.00
13850;DHT22;6995;52.618;13.488;2023-02-12T18:01:07;8.50;1.00
13850;DHT22;6995;52.618;13.488;2023-02-12T18:03:39;8.60;1.00
13850;DHT22;6995;52.618;13.488;2023-02-12T18:06:28;8.50;1.00
13850;DHT22;6995;52.618;13.488;2023-02-12T18:08:58;8.50;1.00
13850;DHT22;6995;52.618;13.488;2023-02-12T18:16:34;8.50;1.00
13850;DHT22;6995;52.618;13.488;2023-02-12T18:19:11;8.40;1.00
13850;DHT22;6995;52.618;13.488;2023-02-12T18:21:37;8.40;1.00
13850;DHT22;6995;52.618;13.488;2023-02-12T18:24:05;8.40;1.00
13850;DHT22;6995;52.618;13.488;2023-02-12T18:26:33;8.40;1.00
13850;DHT22;6995;52.618;13.488;2023-02-12T18:28:59;8.40;1.00
13850;DHT22;6995;52.618;13.488;2023-02-12T18:31:28;8.30;1.00
13850;DHT22;6995;52.618;13.488;2023-02-12T18:33:56;8.30;1.00
13850;DHT22;6995;52.618;13.488;2023-02-12T18:36:24;8.30;1.00
13850;DHT22;6995;52.618;13.488;2023-02-12T18:38:55;8.30;1.00
13850;DHT22;6995;52.618;13.488;2023-02-12T18:41:28;8.30;1.00
13850;DHT22;6995;52.618;13.488;2023-02-12T18:43:56;8.30;1.00
13850;DHT22;6995;52.618;13.488;2023-02-12T18:46:46;8.30;1.00
13850;DHT22;6995;52.618;13.488;2023-02-12T18:49:12;8.30;1.00
13850;DHT22;6995;52.618;13.488;2023-02-12T18:51:38;8.30;1.00
13850;DHT22;6995;52.618;13.488;2023-02-12T18:54:07;8.30;1.00
13850;DHT22;6995;52.618;13.488;2023-02-12T18:56:40;8.30;1.00
13850;DHT22;6995;52.618;13.488;2023-02-12T18:59:10;8.30;1.00
13850;DHT22;6995;52.618;13.488;2023-02-12T19:01:36;8.30;1.00
13850;DHT22;6995;52.618;13.488;2023-02-12T19:04:03;8.30;1.00
13850;DHT22;6995;52.618;13.488;2023-02-12T19:06:39;8.20;1.00
13850;DHT22;6995;52.618;13.488;2023-02-12T19:09:22;8.30;1.00
13850;DHT22;6995;52.618;13.488;2023-02-12T19:11:53;8.20;1.00
13850;DHT22;6995;52.618;13.488;2023-02-12T19:14:30;8.20;1.00
13850;DHT22;6995;52.618;13.488;2023-02-12T19:16:58;8.20;1.00
13850;DHT22;6995;52.618;13.488;2023-02-12T19:19:24;8.20;1.00
13850;DHT22;6995;52.618;13.488;2023-02-12T19:21:51;8.30;1.00
13850;DHT22;6995;52.618;13.488;2023-02-12T19:24:20;8.30;1.00
13850;DHT22;6995;52.618;13.488;2023-02-12T19:26:50;8.30;1.00
13850;DHT22;6995;52.618;13.488;2023-02-12T19:29:16;8.30;1.00
13850;DHT22;6995;52.618;13.488;2023-02-12T19:31:45;8.30;1.00
13850;DHT22;6995;52.618;13.488;2023-02-12T19:34:14;8.30;1.00
13850;DHT22;6995;52.618;13.488;2023-02-12T19:36:45;8.30;1.00
13850;DHT22;6995;52.618;13.488;2023-02-12T19:39:20;8.30;1.00
13850;DHT22;6995;52.618;13.488;2023-02-12T19:41:46;8.30;1.00
13850;DHT22;6995;52.618;13.488;2023-02-12T19:44:16;8.30;1.00
13850;DHT22;6995;52.618;13.488;2023-02-12T19:46:42;8.20;1.00
13850;DHT22;6995;52.618;13.488;2023-02-12T19:49:13;8.30;1.00
13850;DHT22;6995;52.618;13.488;2023-02-12T19:51:42;8.30;1.00
13850;DHT22;6995;52.618;13.488;2023-02-12T19:54:12;8.30;1.00
13850;DHT22;6995;52.618;13.488;2023-02-12T19:56:38;8.30;1.00